createdAt,value
2019-05-12T00:00:09.111Z,14.80
2019-05-12T00:02:39.728Z,14.87
2019-05-12T00:05:09.201Z,14.93
2019-05-12T00:07:38.372Z,14.00
2019-05-12T00:10:08.771Z,14.90
2019-05-12T00:12:38.464Z,14.70
2019-05-12T00:15:08.835Z,15.17
2019-05-12T00:17:38.730Z,14.67
2019-05-12T00:20:08.533Z,15.97
2019-05-12T00:22:41.924Z,16.50
2019-05-12T00:25:10.697Z,15.07
2019-05-12T00:27:39.166Z,15.67
2019-05-12T00:30:10.587Z,14.30
2019-05-12T00:32:39.207Z,14.63
2019-05-12T00:35:08.191Z,15.97
2019-05-12T00:37:38.103Z,16.80
2019-05-12T00:40:08.808Z,16.90
2019-05-12T00:42:38.161Z,16.77
2019-05-12T00:45:08.054Z,15.43
2019-05-12T00:47:38.861Z,16.20
2019-05-12T00:50:08.190Z,17.57
2019-05-12T00:52:38.567Z,15.23
2019-05-12T00:55:07.959Z,16.67
2019-05-12T00:57:38.262Z,15.73
2019-05-12T01:00:08.884Z,16.07
2019-05-12T01:02:38.117Z,15.50
2019-05-12T01:05:08.577Z,14.77
2019-05-12T01:07:38.236Z,15.00
2019-05-12T01:10:08.655Z,14.27
2019-05-12T01:12:38.271Z,14.10
2019-05-12T01:15:09.035Z,15.30
2019-05-12T01:17:40.044Z,13.50
2019-05-12T01:20:09.538Z,13.60
2019-05-12T01:22:38.428Z,13.87
2019-05-12T01:25:08.714Z,14.40
2019-05-12T01:27:38.304Z,14.93
2019-05-12T01:30:08.770Z,14.40
2019-05-12T01:32:39.451Z,15.03
2019-05-12T01:35:09.543Z,14.97
2019-05-12T01:37:38.510Z,15.17
2019-05-12T01:40:08.754Z,14.00
2019-05-12T01:42:38.426Z,14.80
2019-05-12T01:45:09.266Z,13.30
2019-05-12T01:47:38.249Z,13.60
2019-05-12T01:50:09.126Z,12.13
2019-05-12T01:52:38.679Z,13.53
2019-05-12T01:55:08.874Z,13.50
2019-05-12T01:57:38.470Z,13.00
2019-05-12T02:00:15.242Z,12.87
2019-05-12T02:02:44.047Z,12.30
2019-05-12T02:05:13.305Z,12.33
2019-05-12T02:07:43.388Z,12.00
2019-05-12T02:10:11.963Z,11.40
2019-05-12T02:12:40.397Z,11.20
2019-05-12T02:15:09.375Z,11.60
2019-05-12T02:17:39.116Z,11.50
2019-05-12T02:20:09.757Z,11.90
2019-05-12T02:22:38.915Z,11.77
2019-05-12T02:25:08.275Z,10.87
2019-05-12T02:27:38.325Z,12.03
2019-05-12T02:30:09.818Z,12.30
2019-05-12T02:32:48.341Z,12.37
2019-05-12T02:35:09.386Z,11.50
2019-05-12T02:37:37.834Z,11.23
2019-05-12T02:40:08.576Z,11.70
2019-05-12T02:42:37.343Z,11.23
2019-05-12T02:45:07.481Z,11.50
2019-05-12T02:47:35.944Z,11.23
2019-05-12T02:50:07.299Z,10.60
2019-05-12T02:52:35.805Z,10.27
2019-05-12T02:55:06.742Z,9.77
2019-05-12T02:57:35.931Z,10.10
2019-05-12T03:00:06.807Z,10.00
2019-05-12T03:02:36.792Z,10.60
2019-05-12T03:05:08.662Z,11.33
2019-05-12T03:07:37.182Z,10.80
2019-05-12T03:10:09.790Z,10.50
2019-05-12T03:12:38.224Z,10.50
2019-05-12T03:15:06.900Z,9.87
2019-05-12T03:17:35.776Z,10.03
2019-05-12T03:20:06.032Z,10.57
2019-05-12T03:22:35.228Z,11.40
2019-05-12T03:25:15.530Z,11.13
2019-05-12T03:27:35.668Z,10.33
2019-05-12T03:30:11.966Z,11.03
2019-05-12T03:32:38.855Z,10.93
2019-05-12T03:35:09.211Z,11.47
2019-05-12T03:37:37.523Z,10.70
2019-05-12T03:40:07.591Z,11.13
2019-05-12T03:42:36.118Z,10.17
2019-05-12T03:45:05.490Z,11.37
2019-05-12T03:47:35.675Z,11.00
2019-05-12T03:50:06.237Z,10.73
2019-05-12T03:52:35.210Z,11.40
2019-05-12T03:55:05.861Z,11.10
2019-05-12T03:57:34.766Z,10.90
2019-05-12T04:00:05.389Z,9.93
2019-05-12T04:02:34.309Z,10.53
2019-05-12T04:05:05.211Z,10.63
2019-05-12T04:07:34.475Z,11.20
2019-05-12T04:10:06.434Z,11.00
2019-05-12T04:12:35.020Z,11.40
2019-05-12T04:15:05.292Z,10.83
2019-05-12T04:17:34.930Z,11.23
2019-05-12T04:20:05.759Z,10.27
2019-05-12T04:22:35.150Z,10.73
2019-05-12T04:25:06.167Z,11.23
2019-05-12T04:27:35.092Z,9.90
2019-05-12T04:30:07.437Z,10.47
2019-05-12T04:32:36.017Z,11.03
2019-05-12T04:35:07.529Z,12.17
2019-05-12T04:37:36.017Z,11.57
2019-05-12T04:40:05.672Z,11.27
2019-05-12T04:42:34.971Z,10.67
2019-05-12T04:45:06.189Z,11.70
2019-05-12T04:47:35.302Z,11.90
2019-05-12T04:50:05.759Z,10.67
2019-05-12T04:52:35.404Z,11.97
2019-05-12T04:55:05.270Z,12.63
2019-05-12T04:57:34.602Z,11.77
2019-05-12T05:00:07.227Z,12.27
2019-05-12T05:02:36.686Z,12.37
2019-05-12T05:05:08.259Z,12.07
2019-05-12T05:07:36.705Z,11.80
2019-05-12T05:10:05.808Z,12.43
2019-05-12T05:12:34.562Z,12.20
2019-05-12T05:15:05.369Z,12.07
2019-05-12T05:17:34.850Z,11.97
2019-05-12T05:20:04.553Z,12.00
2019-05-12T05:22:33.389Z,10.20
2019-05-12T05:25:04.094Z,8.47
2019-05-12T05:27:34.088Z,10.43
2019-05-12T05:30:03.941Z,8.93
2019-05-12T05:32:33.913Z,8.93
2019-05-12T05:35:03.933Z,9.50
2019-05-12T05:37:37.021Z,10.20
2019-05-12T05:40:04.742Z,9.60
2019-05-12T05:42:35.532Z,9.23
2019-05-12T05:45:04.942Z,9.80
2019-05-12T05:47:33.646Z,9.87
2019-05-12T05:50:04.627Z,9.73
2019-05-12T05:52:34.212Z,9.20
2019-05-12T05:55:05.771Z,9.00
2019-05-12T05:57:33.663Z,9.60
2019-05-12T06:00:07.194Z,10.80
2019-05-12T06:02:39.669Z,10.93
2019-05-12T06:05:04.464Z,10.10
2019-05-12T06:07:35.756Z,10.20
2019-05-12T06:10:04.177Z,10.10
2019-05-12T06:12:33.511Z,10.23
2019-05-12T06:15:04.024Z,9.63
2019-05-12T06:17:34.139Z,10.10
2019-05-12T06:20:04.376Z,10.50
2019-05-12T06:22:34.303Z,9.83
2019-05-12T06:25:04.933Z,10.93
2019-05-12T06:27:35.747Z,10.40
2019-05-12T06:30:06.255Z,9.60
2019-05-12T06:32:34.957Z,10.17
2019-05-12T06:35:05.084Z,10.83
2019-05-12T06:37:33.945Z,10.47
2019-05-12T06:40:03.608Z,10.43
2019-05-12T06:42:34.181Z,9.97
2019-05-12T06:45:03.682Z,10.00
2019-05-12T06:47:34.387Z,9.93
2019-05-12T06:50:03.972Z,10.70
2019-05-12T06:52:33.768Z,10.63
2019-05-12T06:55:03.959Z,9.90
2019-05-12T06:57:34.277Z,11.07
2019-05-12T07:00:04.537Z,10.07
2019-05-12T07:02:37.105Z,11.07
2019-05-12T07:05:06.222Z,10.43
2019-05-12T07:07:42.094Z,10.87
2019-05-12T07:10:13.024Z,11.27
2019-05-12T07:12:54.123Z,10.80
2019-05-12T07:15:09.055Z,10.27
2019-05-12T07:17:43.623Z,9.83
2019-05-12T07:20:09.581Z,9.80
2019-05-12T07:22:44.088Z,10.23
2019-05-12T07:25:08.546Z,10.17
2019-05-12T07:27:39.768Z,10.67
2019-05-12T07:30:08.051Z,10.13
2019-05-12T07:32:36.499Z,10.93
2019-05-12T07:35:06.593Z,10.63
2019-05-12T07:37:35.850Z,10.33
2019-05-12T07:40:05.750Z,10.93
2019-05-12T07:42:39.294Z,10.23
2019-05-12T07:45:11.502Z,10.50
2019-05-12T07:47:36.943Z,10.30
2019-05-12T07:50:09.745Z,9.77
2019-05-12T07:52:36.190Z,9.33
2019-05-12T07:55:05.973Z,10.10
2019-05-12T07:57:37.942Z,10.00
2019-05-12T08:00:11.457Z,10.00
2019-05-12T08:02:37.718Z,10.47
2019-05-12T08:05:11.089Z,10.80
2019-05-12T08:07:37.149Z,11.33
2019-05-12T08:10:15.848Z,10.57
2019-05-12T08:12:39.246Z,11.17
2019-05-12T08:15:09.732Z,10.27
2019-05-12T08:17:38.387Z,9.70
2019-05-12T08:20:07.410Z,9.77
2019-05-12T08:22:35.881Z,9.53
2019-05-12T08:25:06.883Z,9.97
2019-05-12T08:27:39.124Z,9.80
2019-05-12T08:30:06.368Z,10.30
2019-05-12T08:32:34.971Z,10.53
2019-05-12T08:35:05.086Z,10.43
2019-05-12T08:37:33.704Z,10.23
2019-05-12T08:40:04.102Z,9.20
2019-05-12T08:42:34.406Z,10.40
2019-05-12T08:45:04.125Z,11.00
2019-05-12T08:47:37.186Z,8.77
2019-05-12T08:50:04.806Z,9.10
2019-05-12T08:52:37.317Z,9.30
2019-05-12T08:55:05.055Z,8.87
2019-05-12T08:57:40.922Z,9.50
2019-05-12T09:00:08.700Z,8.90
2019-05-12T09:02:39.820Z,9.70
2019-05-12T09:05:07.482Z,9.20
2019-05-12T09:07:39.866Z,9.00
2019-05-12T09:10:08.066Z,8.80
2019-05-12T09:12:36.509Z,8.83
2019-05-12T09:15:08.439Z,8.10
2019-05-12T09:17:42.523Z,9.83
2019-05-12T09:20:08.535Z,9.10
2019-05-12T09:22:37.187Z,9.50
2019-05-12T09:25:08.620Z,8.73
2019-05-12T09:27:39.422Z,8.87
2019-05-12T09:30:09.780Z,9.50
2019-05-12T09:32:39.247Z,10.00
2019-05-12T09:35:08.651Z,8.37
2019-05-12T09:37:40.327Z,7.70
2019-05-12T09:40:07.251Z,8.03
2019-05-12T09:42:35.669Z,8.17
2019-05-12T09:45:10.145Z,8.50
2019-05-12T09:47:37.423Z,8.47
2019-05-12T09:50:09.645Z,8.10
2019-05-12T09:52:37.114Z,8.23
2019-05-12T09:55:06.502Z,8.40
2019-05-12T09:57:40.796Z,8.63
2019-05-12T10:00:08.985Z,8.13
2019-05-12T10:02:37.687Z,8.30
2019-05-12T10:05:06.771Z,8.53
2019-05-12T10:07:35.217Z,8.50
2019-05-12T10:10:05.537Z,9.00
2019-05-12T10:12:38.749Z,8.73
2019-05-12T10:15:06.995Z,8.70
2019-05-12T10:17:35.426Z,9.50
2019-05-12T10:20:06.287Z,8.33
2019-05-12T10:22:39.777Z,8.30
2019-05-12T10:25:09.670Z,7.70
2019-05-12T10:27:38.653Z,8.70
2019-05-12T10:30:12.224Z,8.67
2019-05-12T10:32:40.277Z,8.93
2019-05-12T10:35:12.438Z,8.83
2019-05-12T10:37:39.529Z,8.07
2019-05-12T10:40:09.626Z,7.93
2019-05-12T10:42:39.793Z,8.90
2019-05-12T10:45:10.854Z,9.20
2019-05-12T10:47:39.156Z,9.40
2019-05-12T10:50:09.850Z,9.10
2019-05-12T10:52:39.065Z,8.67
2019-05-12T10:55:08.764Z,7.00
2019-05-12T10:57:37.462Z,8.47
2019-05-12T11:00:14.171Z,8.57
2019-05-12T11:02:42.557Z,7.90
2019-05-12T11:05:12.575Z,8.87
2019-05-12T11:07:43.472Z,8.60
2019-05-12T11:10:16.501Z,6.97
2019-05-12T11:12:44.020Z,9.30
2019-05-12T11:15:13.663Z,10.60
2019-05-12T11:17:53.384Z,9.50
2019-05-12T11:20:25.157Z,8.33
2019-05-12T11:22:54.295Z,7.30
2019-05-12T11:25:24.602Z,7.73
2019-05-12T11:27:54.891Z,7.80
2019-05-12T11:30:24.810Z,7.73
2019-05-12T11:32:54.126Z,8.63
2019-05-12T11:35:23.655Z,8.07
2019-05-12T11:37:53.799Z,6.93
2019-05-12T11:40:23.950Z,7.57
2019-05-12T11:42:59.059Z,8.63
2019-05-12T11:45:24.210Z,8.20
2019-05-12T11:47:59.132Z,7.80
2019-05-12T11:50:23.388Z,8.17
2019-05-12T11:52:52.285Z,8.20
2019-05-12T11:55:21.401Z,7.60
2019-05-12T11:57:51.065Z,8.30
2019-05-12T12:00:21.207Z,7.87
2019-05-12T12:02:49.893Z,7.90
2019-05-12T12:05:18.402Z,7.90
2019-05-12T12:07:50.763Z,8.60
2019-05-12T12:10:17.314Z,8.60
2019-05-12T12:12:49.328Z,7.97
2019-05-12T12:15:20.294Z,7.60
2019-05-12T12:17:46.802Z,7.40
2019-05-12T12:20:22.531Z,7.23
2019-05-12T12:22:47.035Z,7.90
2019-05-12T12:25:18.294Z,7.70
2019-05-12T12:27:46.904Z,7.90
2019-05-12T12:30:19.474Z,7.60
2019-05-12T12:32:50.439Z,7.53
2019-05-12T12:35:16.139Z,8.00
2019-05-12T12:37:44.987Z,6.83
2019-05-12T12:40:14.533Z,7.43
2019-05-12T12:42:47.083Z,7.40
2019-05-12T12:45:17.802Z,8.37
2019-05-12T12:47:49.177Z,8.20
2019-05-12T12:50:20.350Z,6.90
2019-05-12T12:52:48.753Z,7.97
2019-05-12T12:55:17.172Z,7.17
2019-05-12T12:57:50.622Z,6.77
2019-05-12T13:00:28.940Z,7.37
2019-05-12T13:02:49.260Z,7.20
2019-05-12T13:05:16.352Z,7.17
2019-05-12T13:07:45.058Z,7.30
2019-05-12T13:10:14.441Z,7.67
2019-05-12T13:12:43.815Z,7.07
2019-05-12T13:15:14.529Z,8.00
2019-05-12T13:17:44.733Z,8.30
2019-05-12T13:20:14.633Z,7.30
2019-05-12T13:22:44.374Z,7.67
2019-05-12T13:25:14.261Z,7.37
2019-05-12T13:27:42.918Z,7.63
2019-05-12T13:30:19.713Z,6.73
2019-05-12T13:32:44.229Z,8.23
2019-05-12T13:35:16.318Z,6.80
2019-05-12T13:37:43.418Z,7.63
2019-05-12T13:40:12.662Z,6.20
2019-05-12T13:42:43.620Z,7.70
2019-05-12T13:45:15.958Z,6.73
2019-05-12T13:47:43.961Z,7.20
2019-05-12T13:50:21.345Z,6.67
2019-05-12T13:52:43.282Z,7.10
2019-05-12T13:55:13.499Z,5.17
2019-05-12T13:57:43.948Z,7.47
2019-05-12T14:00:14.046Z,7.00
2019-05-12T14:02:44.171Z,6.63
2019-05-12T14:05:15.011Z,6.23
2019-05-12T14:07:43.815Z,7.37
2019-05-12T14:10:14.027Z,8.20
2019-05-12T14:12:43.991Z,8.10
2019-05-12T14:15:14.099Z,6.90
2019-05-12T14:17:43.519Z,6.67
2019-05-12T14:20:17.863Z,7.20
2019-05-12T14:22:44.841Z,7.77
2019-05-12T14:25:15.273Z,6.20
2019-05-12T14:27:44.437Z,7.70
2019-05-12T14:30:14.533Z,7.30
2019-05-12T14:32:44.079Z,7.30
2019-05-12T14:35:13.095Z,7.30
2019-05-12T14:37:45.820Z,7.67
2019-05-12T14:40:13.341Z,7.10
2019-05-12T14:42:44.005Z,7.20
2019-05-12T14:45:13.810Z,7.23
2019-05-12T14:47:43.656Z,7.70
2019-05-12T14:50:14.133Z,6.40
2019-05-12T14:52:43.997Z,6.87
2019-05-12T14:55:13.827Z,7.20
2019-05-12T14:57:42.671Z,7.20
2019-05-12T15:00:17.347Z,7.57
2019-05-12T15:02:43.743Z,6.40
2019-05-12T15:05:13.991Z,5.73
2019-05-12T15:07:51.281Z,7.27
2019-05-12T15:10:14.266Z,7.90
2019-05-12T15:12:44.164Z,8.13
2019-05-12T15:15:20.275Z,8.10
2019-05-12T15:17:44.506Z,8.10
2019-05-12T15:20:14.084Z,8.20
2019-05-12T15:22:51.333Z,10.17
2019-05-12T15:25:14.530Z,8.03
2019-05-12T15:27:45.945Z,7.80
2019-05-12T15:30:22.955Z,8.17
2019-05-12T15:32:44.170Z,7.40
2019-05-12T15:35:13.826Z,7.37
2019-05-12T15:37:43.547Z,7.97
2019-05-12T15:40:14.577Z,8.03
2019-05-12T15:42:44.948Z,8.37
2019-05-12T15:45:16.602Z,8.60
2019-05-12T15:47:44.554Z,7.83
2019-05-12T15:50:14.672Z,6.60
2019-05-12T15:52:45.509Z,7.43
2019-05-12T15:55:17.424Z,6.20
2019-05-12T15:57:44.386Z,6.97
2019-05-12T16:00:16.548Z,7.63
2019-05-12T16:02:44.224Z,7.20
2019-05-12T16:05:14.652Z,7.87
2019-05-12T16:07:44.180Z,7.00
2019-05-12T16:10:14.674Z,6.50
2019-05-12T16:12:43.665Z,7.70
2019-05-12T16:15:17.157Z,7.33
2019-05-12T16:17:44.083Z,7.80
2019-05-12T16:20:14.205Z,7.77
2019-05-12T16:22:45.229Z,7.40
2019-05-12T16:25:15.119Z,7.30
2019-05-12T16:27:44.458Z,6.47
2019-05-12T16:30:14.199Z,7.30
2019-05-12T16:32:47.422Z,7.00
2019-05-12T16:35:14.576Z,7.23
2019-05-12T16:37:44.271Z,8.50
2019-05-12T16:40:14.013Z,7.00
2019-05-12T16:42:48.160Z,7.30
2019-05-12T16:45:14.386Z,7.67
2019-05-12T16:47:44.827Z,7.23
2019-05-12T16:50:15.279Z,7.80
2019-05-12T16:52:45.486Z,7.80
2019-05-12T16:55:14.405Z,7.90
2019-05-12T16:57:51.423Z,7.50
2019-05-12T17:00:14.297Z,7.13
2019-05-12T17:02:52.425Z,7.20
2019-05-12T17:05:20.148Z,7.27
2019-05-12T17:07:44.108Z,8.00
2019-05-12T17:10:16.455Z,7.50
2019-05-12T17:12:43.716Z,7.50
2019-05-12T17:15:15.085Z,7.80
2019-05-12T17:17:45.111Z,8.00
2019-05-12T17:20:14.111Z,8.80
2019-05-12T17:22:45.666Z,7.90
2019-05-12T17:25:15.192Z,7.73
2019-05-12T17:27:45.064Z,7.67
2019-05-12T17:30:14.454Z,6.90
2019-05-12T17:32:57.034Z,8.40
2019-05-12T17:35:14.582Z,7.50
2019-05-12T17:37:43.658Z,7.17
2019-05-12T17:40:15.688Z,6.30
2019-05-12T17:42:44.203Z,8.27
2019-05-12T17:45:20.291Z,8.10
2019-05-12T17:47:44.773Z,7.63
2019-05-12T17:50:13.954Z,7.70
2019-05-12T17:52:45.094Z,7.00
2019-05-12T17:55:14.869Z,8.10
2019-05-12T17:57:44.547Z,6.57
2019-05-12T18:00:18.038Z,6.97
2019-05-12T18:02:49.302Z,7.40
2019-05-12T18:05:16.849Z,7.77
2019-05-12T18:07:51.090Z,6.70
2019-05-12T18:10:15.700Z,7.30
2019-05-12T18:12:45.409Z,7.80
2019-05-12T18:15:15.313Z,8.50
2019-05-12T18:17:49.715Z,7.17
2019-05-12T18:20:15.039Z,7.93
2019-05-12T18:22:44.862Z,8.50
2019-05-12T18:25:15.046Z,8.17
2019-05-12T18:27:50.273Z,7.20
2019-05-12T18:30:18.903Z,7.87
2019-05-12T18:32:45.495Z,7.53
2019-05-12T18:35:14.380Z,8.27
2019-05-12T18:37:45.491Z,7.90
2019-05-12T18:40:14.898Z,7.47
2019-05-12T18:42:43.563Z,8.40
2019-05-12T18:45:17.975Z,8.90
2019-05-12T18:47:44.844Z,8.10
2019-05-12T18:50:14.300Z,7.70
2019-05-12T18:52:46.127Z,8.93
2019-05-12T18:55:13.840Z,7.63
2019-05-12T18:57:46.291Z,8.97
2019-05-12T19:00:18.658Z,9.00
2019-05-12T19:02:50.829Z,8.57
2019-05-12T19:05:21.951Z,9.03
2019-05-12T19:07:48.009Z,9.47
2019-05-12T19:10:16.687Z,8.90
2019-05-12T19:12:45.145Z,8.77
2019-05-12T19:15:17.067Z,9.47
2019-05-12T19:17:46.042Z,9.93
2019-05-12T19:20:15.307Z,8.47
2019-05-12T19:22:54.050Z,9.20
2019-05-12T19:25:19.172Z,7.87
2019-05-12T19:27:49.648Z,8.37
2019-05-12T19:30:19.480Z,7.87
2019-05-12T19:32:46.970Z,8.10
2019-05-12T19:35:20.119Z,8.80
2019-05-12T19:37:46.194Z,8.30
2019-05-12T19:40:17.633Z,8.87
2019-05-12T19:42:45.744Z,8.83
2019-05-12T19:45:21.146Z,8.70
2019-05-12T19:47:45.212Z,9.13
2019-05-12T19:50:18.125Z,8.47
2019-05-12T19:52:44.204Z,8.87
2019-05-12T19:55:14.036Z,8.23
2019-05-12T19:57:44.101Z,7.40
2019-05-12T20:00:14.152Z,8.77
2019-05-12T20:02:42.777Z,9.20
2019-05-12T20:05:15.099Z,7.20
2019-05-12T20:07:44.345Z,8.37
2019-05-12T20:10:13.761Z,6.97
2019-05-12T20:12:43.667Z,8.40
2019-05-12T20:15:15.045Z,8.40
2019-05-12T20:17:44.644Z,8.83
2019-05-12T20:20:13.852Z,8.53
2019-05-12T20:22:44.067Z,8.87
2019-05-12T20:25:14.516Z,8.43
2019-05-12T20:27:44.617Z,6.73
2019-05-12T20:30:20.425Z,8.43
2019-05-12T20:32:45.470Z,8.50
2019-05-12T20:35:14.920Z,9.10
2019-05-12T20:37:52.422Z,8.67
2019-05-12T20:40:14.727Z,8.90
2019-05-12T20:43:04.821Z,8.90
2019-05-12T20:45:14.486Z,8.47
2019-05-12T20:47:45.102Z,8.20
2019-05-12T20:50:14.678Z,7.97
2019-05-12T20:52:48.735Z,8.47
2019-05-12T20:55:14.544Z,8.37
2019-05-12T20:57:51.945Z,8.27
2019-05-12T21:00:14.303Z,9.83
2019-05-12T21:02:44.273Z,8.47
2019-05-12T21:05:19.848Z,8.40
2019-05-12T21:07:44.698Z,8.30
2019-05-12T21:10:14.675Z,8.67
2019-05-12T21:12:48.952Z,8.43
2019-05-12T21:15:20.190Z,8.67
2019-05-12T21:17:52.128Z,8.83
2019-05-12T21:20:16.863Z,8.23
2019-05-12T21:22:45.579Z,8.30
2019-05-12T21:25:14.206Z,6.73
2019-05-12T21:27:46.950Z,8.30
2019-05-12T21:30:15.044Z,8.00
2019-05-12T21:32:47.178Z,8.03
2019-05-12T21:35:19.022Z,7.30
2019-05-12T21:37:46.422Z,8.40
2019-05-12T21:40:14.883Z,8.30
2019-05-12T21:42:44.717Z,8.47
2019-05-12T21:45:14.646Z,8.80
2019-05-12T21:47:44.511Z,9.27
2019-05-12T21:50:14.149Z,9.07
2019-05-12T21:52:44.684Z,9.40
2019-05-12T21:55:21.689Z,7.30
2019-05-12T21:57:44.121Z,9.13
2019-05-12T22:00:34.639Z,8.50
2019-05-12T22:03:10.314Z,7.63
2019-05-12T22:05:54.653Z,8.80
2019-05-12T22:08:06.681Z,8.30
2019-05-12T22:10:35.334Z,8.27
2019-05-12T22:13:06.864Z,8.53
2019-05-12T22:15:34.007Z,8.70
2019-05-12T22:18:04.719Z,8.67
2019-05-12T22:20:34.829Z,8.73
2019-05-12T22:23:07.093Z,9.77
2019-05-12T22:25:34.613Z,9.97
2019-05-12T22:28:05.410Z,10.30
2019-05-12T22:30:34.973Z,10.10
2019-05-12T22:33:08.261Z,9.33
2019-05-12T22:35:34.051Z,9.37
2019-05-12T22:38:09.434Z,8.73
2019-05-12T22:40:32.721Z,8.70
2019-05-12T22:43:03.809Z,8.20
2019-05-12T22:45:37.780Z,9.57
2019-05-12T22:48:04.253Z,8.90
2019-05-12T22:50:33.026Z,8.87
2019-05-12T22:53:04.143Z,9.37
2019-05-12T22:55:35.016Z,9.60
2019-05-12T22:58:02.302Z,7.90
2019-05-12T23:00:30.898Z,8.37
2019-05-12T23:03:00.475Z,7.83
2019-05-12T23:05:29.527Z,8.10
2019-05-12T23:08:00.186Z,8.80
2019-05-12T23:10:28.119Z,8.77
2019-05-12T23:13:01.565Z,8.10
2019-05-12T23:15:26.706Z,8.47
2019-05-12T23:17:55.174Z,8.40
2019-05-12T23:20:25.542Z,8.50
2019-05-12T23:22:54.465Z,8.30
2019-05-12T23:25:24.479Z,8.10
2019-05-12T23:27:54.248Z,8.00
2019-05-12T23:30:24.235Z,8.30
2019-05-12T23:32:53.226Z,8.50
2019-05-12T23:35:21.878Z,8.53
2019-05-12T23:37:50.381Z,7.87
2019-05-12T23:40:18.874Z,8.40
2019-05-12T23:42:47.325Z,8.77
2019-05-12T23:45:15.826Z,8.47
2019-05-12T23:47:44.277Z,8.73
2019-05-12T23:50:14.248Z,8.27
2019-05-12T23:52:44.049Z,8.33
2019-05-12T23:55:13.817Z,8.50
2019-05-12T23:57:44.569Z,8.53
